• Join FlightAware (Why Join?)
  • Login
  • US Flag 
11:39PM EDT


 

Airport Tracker/Info


-or-


 

Live Flight TrackerFlight Track Log ✈ ASQ6115 ✈ 24-Apr-2013 ✈ KMSN - KORD

Flight Track Log - Related Links

Times and Time Zones

All times are in EDT time to prevent confusion due to time zone crossing. See the ASQ6115 flight status page for this flight to view local times or setup timezone preferences in your user account.

Time Position Orientation Groundspeed Altitude Reporting Facility
EDT Latitude Longitude Course Direction KTS MPH feet Rate Location/Type
08:37PM 43.0103 -89.2978 162° South 225 259 7,500  Level Chicago Center
08:38PM 42.9317 -89.2639 162° South 283 326 10,300 1,680 Climbing Chicago Center
08:39PM 42.8392 -89.2253 163° South 347 399 11,000 300 Climbing Chicago Center
08:40PM 42.7283 -89.1786 163° South 356 410 11,000  Level Chicago Center
08:41PM 42.6336 -89.1367 162° South 356 410 11,000  Level Chicago Center
08:42PM 42.5478 -89.0647 148° Southeast 378 435 11,000  Level Chicago Center
08:43PM 42.5067 -88.9347 113° Southeast 378 435 11,000 -300 Level Chicago Center
08:44PM 42.4669 -88.8025 112° Southeast 380 437 10,500 -540 Descending Chicago Center
08:46PM 42.4203 -88.6497 112° Southeast 377 434 10,000 -300 Descending Chicago Center
08:47PM 42.3794 -88.5186 113° Southeast 377 434 10,000  Level Chicago Center
08:48PM 42.3400 -88.3883 112° Southeast 371 427 10,000 -720 Level Chicago Center
08:49PM 42.2906 -88.3047 129° Southeast 306 352 8,600 -1,260 Descending Chicago Center
08:50PM 42.2383 -88.2203 130° Southeast 296 341 7,400 -780 Descending Chicago Center
08:51PM 42.1744 -88.1214 131° Southeast 293 337 7,000 -240 Descending Chicago Center
08:52PM 42.1125 -88.0531 141° Southeast 290 334 7,000  Level Chicago Center
08:53PM 42.0928 -87.9519 105° East 288 331 7,000  Level Chicago Center
08:53PM 42.1000 -87.9000 79° East 282 325 7,000 -540 Level Chicago TRACON
08:54PM 42.1000 -87.8000 90° East 243 280 6,300 -1,200 Descending Chicago TRACON
08:55PM 42.0833 -87.7167 105° East 250 288 4,700 -960 Descending Chicago TRACON
08:57PM 42.0389 -87.6767 146° Southeast 201 231 3,800 -600 Descending Chicago Center
08:57PM 42.0333 -87.6833 222° Southwest 175 201 3,500 -540 Descending Chicago TRACON
08:58PM 42.0000 -87.7333 228° Southwest 159 183 3,100 -420 Descending Chicago TRACON